createdAt,value
2019-01-28T00:01:13.865Z,97539.83
2019-01-28T00:03:45.153Z,97540.79
2019-01-28T00:06:15.886Z,97545.34
2019-01-28T00:08:48.596Z,97547.37
2019-01-28T00:11:21.535Z,97557.44
2019-01-28T00:13:52.469Z,97558.36
2019-01-28T00:16:25.530Z,97565.27
2019-01-28T00:18:56.368Z,97564.88
2019-01-28T00:21:30.309Z,97569.20
2019-01-28T00:24:10.876Z,97568.43
2019-01-28T00:26:42.906Z,97573.30
2019-01-28T00:29:13.338Z,97578.63
2019-01-28T00:31:46.797Z,97583.90
2019-01-28T00:34:17.397Z,97582.28
2019-01-28T00:36:49.147Z,97589.18
2019-01-28T00:39:19.786Z,97590.55
2019-01-28T00:41:55.523Z,97598.63
2019-01-28T00:44:26.290Z,97604.12
2019-01-28T00:46:59.584Z,97612.11
2019-01-28T00:49:30.282Z,97612.58
2019-01-28T00:52:11.683Z,97624.84
2019-01-28T00:54:46.834Z,97630.57
2019-01-28T00:57:29.298Z,97636.26
2019-01-28T01:00:01.685Z,97646.13
2019-01-28T01:02:32.550Z,97650.89
2019-01-28T01:05:03.163Z,97657.12
2019-01-28T01:07:35.102Z,97672.19
2019-01-28T01:10:12.854Z,97669.55
2019-01-28T01:12:46.676Z,97680.98
2019-01-28T01:15:22.502Z,97682.72
2019-01-28T01:18:06.224Z,97698.36
2019-01-28T01:20:36.741Z,97713.02
2019-01-28T01:23:07.502Z,97719.08
2019-01-28T01:25:52.835Z,97723.56
2019-01-28T01:28:51.277Z,97728.30
2019-01-28T01:31:21.745Z,97737.27
2019-01-28T01:34:08.107Z,97742.05
2019-01-28T01:36:58.385Z,97747.50
2019-01-28T01:39:40.600Z,97753.25
2019-01-28T01:42:21.057Z,97761.91
2019-01-28T01:45:03.809Z,97766.97
2019-01-28T01:47:35.626Z,97770.03
2019-01-28T01:50:10.556Z,97772.28
2019-01-28T01:52:42.834Z,97770.59
2019-01-28T01:55:15.169Z,97778.41
2019-01-28T01:57:47.740Z,97775.46
2019-01-28T02:00:22.408Z,97773.63
2019-01-28T02:02:53.767Z,97778.89
2019-01-28T02:05:24.257Z,97778.98
2019-01-28T02:07:56.423Z,97781.48
2019-01-28T02:10:26.952Z,97777.27
2019-01-28T02:12:57.687Z,97793.19
2019-01-28T02:15:28.494Z,97782.59
2019-01-28T02:17:59.043Z,97785.73
2019-01-28T02:20:29.882Z,97784.26
2019-01-28T02:23:00.407Z,97785.66
2019-01-28T02:25:30.942Z,97791.92
2019-01-28T02:28:06.992Z,97792.08
2019-01-28T02:30:37.648Z,97793.22
2019-01-28T02:33:08.193Z,97797.42
2019-01-28T02:35:38.700Z,97789.95
2019-01-28T02:38:09.214Z,97795.03
2019-01-28T02:40:39.660Z,97800.20
2019-01-28T02:43:16.939Z,97802.52
2019-01-28T02:45:47.425Z,97809.54
2019-01-28T02:48:18.329Z,97808.33
2019-01-28T02:50:49.961Z,97811.77
2019-01-28T02:53:22.936Z,97808.90
2019-01-28T02:55:53.381Z,97808.45
2019-01-28T02:58:26.256Z,97809.72
2019-01-28T03:01:10.092Z,97805.97
2019-01-28T03:03:41.311Z,97809.53
2019-01-28T03:06:12.942Z,97816.69
2019-01-28T03:08:43.579Z,97814.37
2019-01-28T03:11:14.115Z,97817.33
2019-01-28T03:13:44.664Z,97813.66
2019-01-28T03:16:15.511Z,97818.60
2019-01-28T03:18:46.731Z,97824.70
2019-01-28T03:21:17.274Z,97834.13
2019-01-28T03:23:48.408Z,97840.51
2019-01-28T03:26:22.133Z,97844.13
2019-01-28T03:28:52.650Z,97837.21
2019-01-28T03:31:23.124Z,97845.48
2019-01-28T03:33:53.793Z,97853.78
2019-01-28T03:36:25.955Z,97858.61
2019-01-28T03:38:56.445Z,97864.74
2019-01-28T03:41:26.945Z,97865.42
2019-01-28T03:43:57.698Z,97867.17
2019-01-28T03:46:28.078Z,97864.09
2019-01-28T03:48:58.702Z,97869.33
2019-01-28T03:51:29.197Z,97875.45
2019-01-28T03:53:59.960Z,97871.29
2019-01-28T03:56:31.426Z,97863.41
2019-01-28T03:59:02.378Z,97869.61
2019-01-28T04:01:33.195Z,97872.59
2019-01-28T04:04:03.656Z,97870.69
2019-01-28T04:06:34.604Z,97871.77
2019-01-28T04:09:08.320Z,97877.72
2019-01-28T04:11:38.940Z,97884.28
2019-01-28T04:14:11.742Z,97889.19
2019-01-28T04:16:42.090Z,97889.78
2019-01-28T04:19:14.821Z,97893.16
2019-01-28T04:21:45.282Z,97891.11
2019-01-28T04:24:15.786Z,97886.94
2019-01-28T04:27:03.527Z,97894.56
2019-01-28T04:29:33.718Z,97892.12
2019-01-28T04:32:04.571Z,97895.66
2019-01-28T04:34:35.003Z,97894.31
2019-01-28T04:37:05.838Z,97887.30
2019-01-28T04:39:36.347Z,97887.48
2019-01-28T04:42:07.278Z,97885.99
2019-01-28T04:44:37.828Z,97885.06
2019-01-28T04:47:08.429Z,97889.96
2019-01-28T04:49:38.889Z,97892.89
2019-01-28T04:52:09.297Z,97886.06
2019-01-28T04:54:41.092Z,97882.44
2019-01-28T04:57:13.081Z,97882.59
2019-01-28T04:59:43.525Z,97879.38
2019-01-28T05:02:16.044Z,97876.97
2019-01-28T05:04:46.661Z,97877.28
2019-01-28T05:07:17.304Z,97873.66
2019-01-28T05:09:47.792Z,97877.91
2019-01-28T05:12:18.278Z,97877.75
2019-01-28T05:14:48.751Z,97877.09
2019-01-28T05:17:19.178Z,97877.73
2019-01-28T05:19:49.718Z,97876.34
2019-01-28T05:22:20.235Z,97870.91
2019-01-28T05:24:52.673Z,97872.35
2019-01-28T05:27:23.381Z,97865.36
2019-01-28T05:29:53.841Z,97872.77
2019-01-28T05:32:24.342Z,97863.38
2019-01-28T05:34:55.267Z,97862.64
2019-01-28T05:37:25.866Z,97862.24
2019-01-28T05:39:56.704Z,97862.87
2019-01-28T05:42:27.384Z,97864.95
2019-01-28T05:44:57.802Z,97865.22
2019-01-28T05:47:28.421Z,97863.77
2019-01-28T05:50:03.673Z,97861.05
2019-01-28T05:52:37.468Z,97867.33
2019-01-28T05:55:09.101Z,97869.31
2019-01-28T05:57:39.640Z,97875.92
2019-01-28T06:00:20.793Z,97875.36
2019-01-28T06:02:51.580Z,97879.23
2019-01-28T06:05:22.113Z,97873.06
2019-01-28T06:07:53.139Z,97872.38
2019-01-28T06:10:23.710Z,97878.73
2019-01-28T06:12:57.671Z,97877.73
2019-01-28T06:15:35.159Z,97884.69
2019-01-28T06:18:06.854Z,97882.50
2019-01-28T06:20:37.464Z,97886.47
2019-01-28T06:23:10.942Z,97885.79
2019-01-28T06:25:42.540Z,97888.70
2019-01-28T06:28:17.565Z,97890.28
2019-01-28T06:30:58.771Z,97884.80
2019-01-28T06:33:39.676Z,97891.59
2019-01-28T06:36:27.045Z,97889.41
2019-01-28T06:39:02.062Z,97885.03
2019-01-28T06:41:34.130Z,97889.17
2019-01-28T06:44:07.361Z,97889.77
2019-01-28T06:46:41.778Z,97886.70
2019-01-28T06:49:15.466Z,97888.11
2019-01-28T06:51:45.979Z,97883.25
2019-01-28T06:54:16.512Z,97880.83
2019-01-28T06:56:47.446Z,97883.02
2019-01-28T06:59:21.602Z,97883.92
2019-01-28T07:01:52.624Z,97884.91
2019-01-28T07:04:23.146Z,97880.42
2019-01-28T07:06:53.684Z,97886.11
2019-01-28T07:09:24.878Z,97879.58
2019-01-28T07:12:08.719Z,97879.62
2019-01-28T07:14:40.085Z,97876.70
2019-01-28T07:17:12.989Z,97871.49
2019-01-28T07:19:43.491Z,97880.16
2019-01-28T07:22:18.522Z,97891.17
2019-01-28T07:24:49.099Z,97904.16
2019-01-28T07:27:19.785Z,97894.45
2019-01-28T07:29:55.904Z,97902.92
2019-01-28T07:32:34.013Z,97902.98
2019-01-28T07:35:07.142Z,97903.22
2019-01-28T07:37:38.117Z,97898.28
2019-01-28T07:40:10.304Z,97896.84
2019-01-28T07:42:47.150Z,97894.58
2019-01-28T07:45:27.195Z,97893.50
2019-01-28T07:48:05.848Z,97889.20
2019-01-28T07:50:36.833Z,97885.98
2019-01-28T07:53:09.856Z,97888.98
2019-01-28T07:55:48.242Z,97882.45
2019-01-28T07:58:19.749Z,97887.34
2019-01-28T08:00:54.132Z,97887.64
2019-01-28T08:03:28.949Z,97885.70
2019-01-28T08:06:00.453Z,97875.20
2019-01-28T08:08:31.853Z,97876.98
2019-01-28T08:11:02.484Z,97877.81
2019-01-28T08:13:35.919Z,97878.66
2019-01-28T08:16:06.615Z,97877.22
2019-01-28T08:18:39.476Z,97870.53
2019-01-28T08:21:09.991Z,97875.55
2019-01-28T08:23:40.551Z,97873.67
2019-01-28T08:26:10.997Z,97870.61
2019-01-28T08:28:44.209Z,97866.53
2019-01-28T08:31:14.698Z,97866.13
2019-01-28T08:33:45.812Z,97857.41
2019-01-28T08:36:19.365Z,97853.95
2019-01-28T08:38:50.215Z,97856.77
2019-01-28T08:41:20.920Z,97848.37
2019-01-28T08:44:07.500Z,97850.17
2019-01-28T08:46:38.986Z,97844.28
2019-01-28T08:49:23.818Z,97846.80
2019-01-28T08:52:17.269Z,97844.53
2019-01-28T08:55:32.003Z,97842.84
2019-01-28T08:58:13.901Z,97842.77
2019-01-28T09:00:49.998Z,97849.70
2019-01-28T09:03:20.982Z,97843.30
2019-01-28T09:05:51.821Z,97839.66
2019-01-28T09:08:23.218Z,97840.30
2019-01-28T09:10:54.586Z,97837.88
2019-01-28T09:13:28.895Z,97835.77
2019-01-28T09:16:00.964Z,97840.12
2019-01-28T09:18:34.293Z,97832.32
2019-01-28T09:21:04.786Z,97838.11
2019-01-28T09:23:35.978Z,97834.97
2019-01-28T09:26:09.692Z,97838.45
2019-01-28T09:28:44.368Z,97824.47
2019-01-28T09:31:26.835Z,97832.72
2019-01-28T09:33:57.553Z,97834.59
2019-01-28T09:36:28.098Z,97830.15
2019-01-28T09:38:58.965Z,97818.45
2019-01-28T09:41:29.685Z,97823.77
2019-01-28T09:44:01.915Z,97834.51
2019-01-28T09:46:37.279Z,97826.50
2019-01-28T09:49:17.369Z,97821.63
2019-01-28T09:52:06.081Z,97830.36
2019-01-28T09:54:37.688Z,97836.86
2019-01-28T09:57:10.730Z,97831.34
2019-01-28T09:59:44.957Z,97827.48
2019-01-28T10:02:23.708Z,97820.39
2019-01-28T10:04:58.827Z,97826.86
2019-01-28T10:07:32.393Z,97824.20
2019-01-28T10:10:08.132Z,97818.05
2019-01-28T10:12:50.496Z,97829.27
2019-01-28T10:15:55.210Z,97816.73
2019-01-28T10:18:27.785Z,97816.34
2019-01-28T10:21:07.026Z,97819.52
2019-01-28T10:23:40.111Z,97816.70
2019-01-28T10:26:20.201Z,97815.70
2019-01-28T10:28:59.168Z,97831.58
2019-01-28T10:31:30.329Z,97819.52
2019-01-28T10:34:04.112Z,97815.76
2019-01-28T10:36:34.834Z,97813.83
2019-01-28T10:39:10.971Z,97827.00
2019-01-28T10:41:41.534Z,97819.36
2019-01-28T10:44:16.814Z,97815.07
2019-01-28T10:47:27.446Z,97823.25
2019-01-28T10:49:53.548Z,97821.20
2019-01-28T10:52:25.377Z,97818.45
2019-01-28T10:54:55.961Z,97815.42
2019-01-28T10:57:26.901Z,97819.36
2019-01-28T10:59:57.369Z,97821.34
2019-01-28T11:02:28.949Z,97818.03
2019-01-28T11:04:59.433Z,97814.50
2019-01-28T11:07:30.012Z,97810.23
2019-01-28T11:10:01.301Z,97820.91
2019-01-28T11:12:32.696Z,97816.45
2019-01-28T11:15:08.411Z,97810.11
2019-01-28T11:17:39.247Z,97813.97
2019-01-28T11:20:11.709Z,97797.30
2019-01-28T11:22:42.474Z,97801.86
2019-01-28T11:25:22.064Z,97801.20
2019-01-28T11:28:17.824Z,97793.81
2019-01-28T11:31:05.926Z,97799.07
2019-01-28T11:33:39.972Z,97795.39
2019-01-28T11:54:03.115Z,97769.50
2019-01-28T11:56:36.786Z,97782.02
2019-01-28T11:59:09.851Z,97773.80
2019-01-28T12:01:40.545Z,97776.81
2019-01-28T12:04:19.109Z,97772.47
2019-01-28T12:06:50.663Z,97781.02
2019-01-28T12:09:21.271Z,97784.09
2019-01-28T12:11:51.850Z,97784.25
2019-01-28T12:14:24.903Z,97778.65
2019-01-28T12:16:57.823Z,97780.63
2019-01-28T12:24:27.344Z,97783.56
2019-01-28T12:27:03.515Z,97778.98
2019-01-28T12:29:36.801Z,97787.39
2019-01-28T12:32:11.352Z,97783.59
2019-01-28T12:34:48.599Z,97788.36
2019-01-28T12:37:21.499Z,97782.77
2019-01-28T12:39:52.470Z,97787.08
2019-01-28T12:42:29.368Z,97784.17
2019-01-28T12:45:59.437Z,97783.66
2019-01-28T13:06:17.302Z,97785.10
2019-01-28T13:08:48.151Z,97792.59
2019-01-28T13:11:18.729Z,97795.51
2019-01-28T13:14:22.220Z,97788.00
2019-01-28T13:17:13.908Z,97791.08
2019-01-28T13:19:45.258Z,97797.47
2019-01-28T13:22:17.783Z,97799.33
2019-01-28T13:25:01.809Z,97800.45
2019-01-28T13:37:24.530Z,97818.41
2019-01-28T13:41:11.535Z,97827.09
2019-01-28T13:45:04.717Z,97827.17
2019-01-28T13:47:35.297Z,97829.55
2019-01-28T13:50:18.318Z,97827.46
2019-01-28T13:52:52.115Z,97829.55
2019-01-28T13:55:36.078Z,97830.00
2019-01-28T13:58:08.902Z,97830.32
2019-01-28T14:00:43.578Z,97834.44
2019-01-28T14:03:15.008Z,97835.11
2019-01-28T14:05:46.695Z,97831.16
2019-01-28T14:08:17.253Z,97828.69
2019-01-28T14:10:47.941Z,97829.18
2019-01-28T14:13:34.432Z,97830.02
2019-01-28T14:16:05.372Z,97834.11
2019-01-28T14:18:36.030Z,97835.38
2019-01-28T14:21:08.630Z,97829.03
2019-01-28T14:24:10.513Z,97835.98
2019-01-28T14:30:58.209Z,97842.20
2019-01-28T14:33:29.068Z,97837.44
2019-01-28T14:36:02.010Z,97841.02
2019-01-28T14:39:28.090Z,97842.58
2019-01-28T14:42:01.551Z,97846.31
2019-01-28T14:44:33.727Z,97841.34
2019-01-28T14:47:05.810Z,97846.92
2019-01-28T14:49:36.731Z,97846.19
2019-01-28T14:52:11.033Z,97845.25
2019-01-28T14:54:41.777Z,97840.74
2019-01-28T14:57:22.060Z,97839.70
2019-01-28T14:59:52.662Z,97844.69
2019-01-28T15:02:26.520Z,97844.17
2019-01-28T15:04:57.434Z,97850.30
2019-01-28T15:07:28.926Z,97843.39
2019-01-28T15:11:25.971Z,97842.16
2019-01-28T15:14:29.006Z,97847.89
2019-01-28T15:17:01.473Z,97846.37
2019-01-28T15:19:33.460Z,97851.20
2019-01-28T15:22:05.106Z,97854.30
2019-01-28T15:24:58.234Z,97859.14
2019-01-28T15:29:05.352Z,97857.89
2019-01-28T15:32:07.387Z,97857.78
2019-01-28T15:39:02.027Z,97861.75
2019-01-28T15:54:24.966Z,97869.34
2019-01-28T15:56:55.664Z,97866.36
2019-01-28T15:59:30.317Z,97869.41
2019-01-28T16:02:11.008Z,97871.62
2019-01-28T16:04:45.913Z,97877.80
2019-01-28T16:07:21.020Z,97883.28
2019-01-28T16:09:54.744Z,97884.20
2019-01-28T16:12:25.600Z,97886.08
2019-01-28T16:14:56.407Z,97889.41
2019-01-28T16:17:29.610Z,97885.23
2019-01-28T16:20:31.816Z,97893.05
2019-01-28T16:24:27.158Z,97893.45
2019-01-28T16:26:59.366Z,97902.29
2019-01-28T16:29:46.845Z,97910.84
2019-01-28T16:36:19.483Z,97913.53
2019-01-28T16:38:53.133Z,97913.24
2019-01-28T16:41:23.910Z,97916.19
2019-01-28T16:44:25.303Z,97919.63
2019-01-28T16:46:59.940Z,97920.56
2019-01-28T16:52:54.348Z,97922.30
2019-01-28T16:55:29.104Z,97928.22
2019-01-28T16:58:03.777Z,97927.16
2019-01-28T17:00:37.926Z,97927.45
2019-01-28T17:03:13.109Z,97931.26
2019-01-28T17:05:44.560Z,97937.91
2019-01-28T17:08:15.426Z,97939.59
2019-01-28T17:10:45.956Z,97940.83
2019-01-28T17:13:18.770Z,97940.17
2019-01-28T17:15:49.982Z,97949.68
2019-01-28T17:23:02.738Z,97954.52
2019-01-28T17:25:48.318Z,97959.16
2019-01-28T17:28:21.937Z,97963.20
2019-01-28T17:30:53.023Z,97967.81
2019-01-28T17:33:25.882Z,97967.17
2019-01-28T17:35:56.419Z,97974.02
2019-01-28T17:38:26.910Z,97971.72
2019-01-28T17:53:55.283Z,97977.34
2019-01-28T17:57:05.293Z,97988.02
2019-01-28T18:04:00.612Z,97989.16
2019-01-28T18:07:23.125Z,97995.02
2019-01-28T18:17:58.456Z,98013.22
2019-01-28T18:21:44.793Z,98013.09
2019-01-28T18:33:28.618Z,98022.42
2019-01-28T18:37:14.681Z,98029.48
2019-01-28T18:39:46.354Z,98028.53
2019-01-28T18:42:20.856Z,98032.09
2019-01-28T18:44:51.790Z,98031.08
2019-01-28T18:47:23.601Z,98037.45
2019-01-28T18:51:00.791Z,98046.55
2019-01-28T19:07:42.343Z,98070.05
2019-01-28T19:15:08.570Z,98096.16
2019-01-28T19:18:01.743Z,98107.17
2019-01-28T19:21:42.151Z,98106.58
2019-01-28T19:25:28.149Z,98108.50
2019-01-28T19:32:27.803Z,98127.73
2019-01-28T19:36:28.889Z,98134.50
2019-01-28T19:39:02.224Z,98141.94
2019-01-28T19:41:33.146Z,98149.44
2019-01-28T19:44:36.946Z,98148.61
2019-01-28T19:47:16.286Z,98162.52
2019-01-28T19:50:47.879Z,98159.81
2019-01-28T19:53:18.551Z,98158.97
2019-01-28T19:55:49.241Z,98165.17
2019-01-28T19:58:21.697Z,98167.97
2019-01-28T20:00:55.828Z,98177.80
2019-01-28T20:03:34.078Z,98184.41
2019-01-28T20:06:12.020Z,98179.26
2019-01-28T20:09:19.142Z,98183.42
2019-01-28T20:12:18.409Z,98189.77
2019-01-28T20:15:12.107Z,98200.63
2019-01-28T20:39:10.063Z,98239.92
2019-01-28T20:41:40.754Z,98245.61
2019-01-28T21:04:25.768Z,98277.16
2019-01-28T21:07:02.884Z,98279.97
2019-01-28T21:09:35.870Z,98290.84
2019-01-28T21:20:30.430Z,98307.57
2019-01-28T21:23:02.655Z,98303.59
2019-01-28T21:25:35.001Z,98316.34
2019-01-28T21:28:05.907Z,98323.64
2019-01-28T21:31:54.607Z,98330.32
2019-01-28T21:34:25.117Z,98333.19
2019-01-28T21:37:02.882Z,98340.72
2019-01-28T21:39:36.297Z,98346.33
2019-01-28T21:42:09.765Z,98352.97
2019-01-28T21:44:40.218Z,98360.77
2019-01-28T21:52:51.996Z,98379.28
2019-01-28T21:55:24.947Z,98383.55
2019-01-28T21:57:59.015Z,98381.16
2019-01-28T22:00:33.625Z,98391.84
2019-01-28T22:03:07.659Z,98387.15
2019-01-28T22:05:44.915Z,98396.06
2019-01-28T22:08:15.442Z,98400.45
2019-01-28T22:15:02.280Z,98411.92
2019-01-28T22:17:32.973Z,98414.83
2019-01-28T22:20:03.625Z,98416.45
2019-01-28T22:22:34.161Z,98422.75
2019-01-28T22:25:05.370Z,98423.42
2019-01-28T22:27:40.426Z,98436.93
2019-01-28T22:30:18.491Z,98432.12
2019-01-28T22:32:48.887Z,98438.78
2019-01-28T22:39:13.346Z,98452.33
2019-01-28T22:41:43.914Z,98450.77
2019-01-28T22:44:14.636Z,98462.98
2019-01-28T22:46:45.591Z,98462.45
2019-01-28T22:49:16.085Z,98469.42
2019-01-28T22:55:45.024Z,98482.44
2019-01-28T22:58:17.200Z,98481.61
2019-01-28T23:01:27.151Z,98491.07
2019-01-28T23:03:59.103Z,98492.59
2019-01-28T23:11:15.220Z,98500.72
2019-01-28T23:13:45.940Z,98494.80
2019-01-28T23:16:16.380Z,98504.93
2019-01-28T23:18:49.470Z,98513.11
2019-01-28T23:21:20.403Z,98517.38
2019-01-28T23:23:51.124Z,98521.16
2019-01-28T23:38:33.901Z,98552.73
2019-01-28T23:41:06.575Z,98551.39
2019-01-28T23:43:41.869Z,98558.46
2019-01-28T23:46:15.072Z,98559.77
2019-01-28T23:48:49.011Z,98571.92
2019-01-28T23:51:46.542Z,98565.02
2019-01-28T23:54:39.908Z,98582.69
2019-01-28T23:57:10.552Z,98580.63
